Terminal Aerodrome Forecast
Issued by NWS

Home | Current Version | Previous Version | Graphics & Text | Print | Product List | Glossary On
Versions: 1 2 3 4 5 6 7 8 9 10 11 12 13 14 15 16 17 18 19 20
000
FTUS43 KABR 011138
TAFATY
TAF
KATY 011138Z 0112/0212 10004KT 5SM -RA BR OVC060
     FM011330 13008KT 5SM BR SCT020 BKN080
     FM012000 14010KT P6SM -RA VCTS OVC050CB
     FM020200 VRB06KT P6SM VCSH SCT070 BKN100=

USA.gov is the U.S. government's official web portal to all federal, state and local government web resources and services.